Time;durP1;ratioP1;P1;durP2;ratioP2;P2;SDS_P1;SDS_P2;PMS_P1;PMS_P2;Temp;Humidity;BMP_temperature;BMP_pressure;BME280_temperature;BME280_humidity;BME280_pressure;Samples;Min_cycle;Max_cycle;Signal;HPM_P1;HPM_P2
2022/09/23 00:02:06;;;;;;;;;;;;;;;10.30;63.18;99970.59;4428717;32;34543;-81
2022/09/23 00:04:35;;;;;;;;;;;;;;;10.24;63.30;99965.41;4429634;32;34179;-81
2022/09/23 00:07:03;;;;;;;;;;;;;;;10.32;63.11;99968.84;4427338;32;34287;-82
2022/09/23 00:09:33;;;;;;;;;;;;;;;10.20;63.41;99968.91;4434264;32;33992;-83
2022/09/23 00:12:05;;;;;;;;;;;;;;;10.02;63.87;99972.47;4435719;32;34195;-81
2022/09/23 00:14:40;;;;;;;;;;;;;;;10.03;64.23;99971.63;4428034;32;34149;-82
2022/09/23 00:17:09;;;;;;;;;;;;;;;10.07;63.93;99968.13;4426479;32;34110;-83
2022/09/23 00:19:41;;;;;;;;;;;;;;;9.89;64.77;99968.25;4434330;32;33002;-81
2022/09/23 00:22:09;;;;;;;;;;;;;;;9.92;64.63;99970.81;4436054;32;34871;-82
2022/09/23 00:24:41;;;;;;;;;;;;;;;9.97;64.29;99967.31;4429927;32;34756;-81
2022/09/23 00:27:09;;;;;;;;;;;;;;;9.88;64.40;99962.19;4430914;32;35106;-83
2022/09/23 00:29:41;;;;;;;;;;;;;;;9.98;64.00;99960.44;4433758;32;33229;-81
2022/09/23 00:32:11;;;;;;;;;;;;;;;9.93;63.87;99956.97;4430126;32;33912;-84
2022/09/23 00:34:39;;;;;;;;;;;;;;;9.75;64.68;99956.22;4436136;32;33855;-81
2022/09/23 00:37:10;;;;;;;;;;;;;;;9.81;64.75;99961.38;4430433;32;33841;-82
2022/09/23 00:39:39;;;;;;;;;;;;;;;9.79;64.82;99952.75;4431331;32;34132;-84
2022/09/23 00:42:11;;;;;;;;;;;;;;;9.82;64.72;99944.97;4417113;32;34887;-81
2022/09/23 00:44:47;;;;;;;;;;;;;;;9.75;65.09;99948.44;4435745;32;34402;-82
2022/09/23 00:47:19;;;;;;;;;;;;;;;9.73;64.86;99942.41;4428401;32;33963;-82
2022/09/23 00:50:00;;;;;;;;;;;;;;;9.83;64.67;99938.94;4428383;32;33974;-84
2022/09/23 00:52:30;;;;;;;;;;;;;;;9.85;64.45;99938.03;4428346;32;33932;-83
2022/09/23 00:54:59;;;;;;;;;;;;;;;9.89;64.40;99935.41;4426339;32;35031;-82
2022/09/23 00:57:30;;;;;;;;;;;;;;;9.54;65.19;99933.03;4434432;32;34097;-80
2022/09/23 00:59:59;;;;;;;;;;;;;;;9.55;65.58;99938.22;4431339;32;34409;-82
2022/09/23 01:02:38;;;;;;;;;;;;;;;9.71;65.01;99939.00;4429478;32;32938;-82
2022/09/23 01:05:07;;;;;;;;;;;;;;;9.61;65.15;99932.97;4429905;32;33603;-81
2022/09/23 01:07:44;;;;;;;;;;;;;;;9.65;65.28;99939.03;4429128;32;34422;-81
2022/09/23 01:10:14;;;;;;;;;;;;;;;9.63;64.91;99940.75;4437921;32;33762;-82
2022/09/23 01:12:47;;;;;;;;;;;;;;;9.68;64.70;99944.19;4431737;32;34571;-82
2022/09/23 01:15:18;;;;;;;;;;;;;;;9.65;64.91;99941.59;4426855;32;32015;-84
2022/09/23 01:17:49;;;;;;;;;;;;;;;9.72;64.87;99945.03;4431519;32;34113;-82
2022/09/23 01:20:24;;;;;;;;;;;;;;;9.82;64.01;99947.56;4437290;32;33647;-82
2022/09/23 01:22:54;;;;;;;;;;;;;;;9.67;64.50;99941.63;4437814;32;33996;-81
2022/09/23 01:25:31;;;;;;;;;;;;;;;9.58;64.81;99945.09;4434779;32;33669;-81
2022/09/23 01:28:06;;;;;;;;;;;;;;;9.59;64.48;99939.03;4432222;32;33738;-81
2022/09/23 01:30:47;;;;;;;;;;;;;;;9.54;64.74;99935.62;4433432;32;33268;-82
2022/09/23 01:33:18;;;;;;;;;;;;;;;9.77;63.78;99948.47;4432412;32;34291;-82
2022/09/23 01:35:58;;;;;;;;;;;;;;;9.60;64.31;99940.78;4437339;32;34055;-80
2022/09/23 01:38:30;;;;;;;;;;;;;;;9.44;65.03;99945.16;4432650;32;34736;-80
2022/09/23 01:40:59;;;;;;;;;;;;;;;9.45;65.15;99940.81;4431742;32;34157;-82
2022/09/23 01:43:30;;;;;;;;;;;;;;;9.55;64.73;99939.94;4432283;32;34948;-81
2022/09/23 01:46:00;;;;;;;;;;;;;;;9.58;64.85;99948.53;4437437;32;35158;-81
2022/09/23 01:48:32;;;;;;;;;;;;;;;9.65;64.30;99944.19;4433666;32;35912;-81
2022/09/23 01:51:02;;;;;;;;;;;;;;;9.45;64.44;99941.72;4432961;32;32690;-81
2022/09/23 01:53:37;;;;;;;;;;;;;;;9.50;64.36;99939.09;4426978;32;34074;-82
2022/09/23 01:56:07;;;;;;;;;;;;;;;9.45;64.13;99940.81;4427469;32;33931;-80
2022/09/23 01:58:45;;;;;;;;;;;;;;;9.48;64.40;99933.06;4434423;32;33891;-83
2022/09/23 02:01:19;;;;;;;;;;;;;;;9.48;64.23;99933.94;4435119;32;35273;-82
2022/09/23 02:03:48;;;;;;;;;;;;;;;9.39;64.56;99936.56;4431519;32;34235;-81
2022/09/23 02:06:19;;;;;;;;;;;;;;;9.59;64.27;99934.75;4432169;32;33863;-81
2022/09/23 02:08:49;;;;;;;;;;;;;;;9.55;64.02;99933.03;4432279;32;34461;-81
2022/09/23 02:11:20;;;;;;;;;;;;;;;9.46;64.45;99946.00;4436546;32;33680;-83
2022/09/23 02:13:50;;;;;;;;;;;;;;;9.38;64.94;99935.69;4432175;32;33774;-81
2022/09/23 02:16:23;;;;;;;;;;;;;;;9.29;65.39;99935.72;4432313;32;34586;-81
2022/09/23 02:18:53;;;;;;;;;;;;;;;9.06;65.44;99932.34;4432051;32;34116;-80
2022/09/23 02:21:23;;;;;;;;;;;;;;;9.44;64.46;99934.78;4422076;32;32858;-80
2022/09/23 02:23:52;;;;;;;;;;;;;;;9.46;64.13;99934.81;4437118;32;34249;-81
2022/09/23 02:26:23;;;;;;;;;;;;;;;9.45;64.13;99931.34;4432127;32;33416;-82
2022/09/23 02:28:54;;;;;;;;;;;;;;;9.31;64.44;99931.41;4432843;32;34748;-81
2022/09/23 02:31:27;;;;;;;;;;;;;;;9.38;64.42;99929.66;4432993;32;34118;-80
2022/09/23 02:33:57;;;;;;;;;;;;;;;9.38;64.64;99927.06;4435419;32;34009;-83
2022/09/23 02:36:28;;;;;;;;;;;;;;;9.27;64.66;99936.59;4431572;32;34928;-81
2022/09/23 02:38:57;;;;;;;;;;;;;;;9.27;64.76;99927.09;4428922;32;34324;-82
2022/09/23 02:41:27;;;;;;;;;;;;;;;9.22;64.87;99926.25;4419344;32;33491;-81
2022/09/23 02:43:58;;;;;;;;;;;;;;;9.32;64.66;99930.53;4431961;32;33386;-81
2022/09/23 02:46:29;;;;;;;;;;;;;;;9.32;64.22;99933.13;4437309;32;35101;-82
2022/09/23 02:49:00;;;;;;;;;;;;;;;9.22;64.61;99938.34;4431539;32;35035;-82
2022/09/23 02:51:33;;;;;;;;;;;;;;;9.22;64.80;99939.22;4433517;32;33289;-84
2022/09/23 02:54:02;;;;;;;;;;;;;;;9.16;65.04;99936.66;4431763;32;34386;-81
2022/09/23 02:56:31;;;;;;;;;;;;;;;9.17;64.91;99934.03;4436873;32;33878;-82
2022/09/23 02:58:59;;;;;;;;;;;;;;;9.10;65.18;99929.75;4431249;32;35145;-84
2022/09/23 03:01:33;;;;;;;;;;;;;;;9.25;64.73;99934.00;4431672;32;32903;-85
2022/09/23 03:04:05;;;;;;;;;;;;;;;9.23;64.91;99935.78;4431361;32;34031;-86
2022/09/23 03:06:36;;;;;;;;;;;;;;;9.19;65.05;99931.47;4424241;32;34927;-81
2022/09/23 03:09:06;;;;;;;;;;;;;;;9.10;65.41;99926.31;4437316;32;34877;-81
2022/09/23 03:11:36;;;;;;;;;;;;;;;9.12;65.31;99928.03;4432491;32;33160;-84
2022/09/23 03:14:15;;;;;;;;;;;;;;;9.03;65.60;99930.63;4418330;32;33840;-83
2022/09/23 03:16:47;;;;;;;;;;;;;;;9.05;65.66;99933.22;4429900;32;33517;-81
2022/09/23 03:19:23;;;;;;;;;;;;;;;9.11;65.34;99928.03;4435424;32;34384;-81
2022/09/23 03:21:53;;;;;;;;;;;;;;;8.96;65.85;99937.59;4430928;32;33605;-82
2022/09/23 03:24:21;;;;;;;;;;;;;;;9.13;65.30;99937.53;4426825;32;33958;-82
2022/09/23 03:26:50;;;;;;;;;;;;;;;9.18;64.98;99932.31;4429650;32;33984;-81
2022/09/23 03:29:22;;;;;;;;;;;;;;;9.11;65.17;99933.19;4433278;32;34739;-82
2022/09/23 03:31:52;;;;;;;;;;;;;;;8.89;65.73;99938.47;4436115;32;32993;-81
2022/09/23 03:34:29;;;;;;;;;;;;;;;9.02;65.65;99935.84;4421562;32;34324;-82
2022/09/23 03:37:00;;;;;;;;;;;;;;;9.07;65.28;99934.09;4430736;32;33913;-81
2022/09/23 03:39:35;;;;;;;;;;;;;;;8.96;65.05;99939.28;4432060;32;34939;-82
2022/09/23 03:42:06;;;;;;;;;;;;;;;8.87;65.62;99932.44;4431079;32;32998;-83
2022/09/23 03:44:37;;;;;;;;;;;;;;;9.01;65.12;99928.91;4433858;32;33976;-84
2022/09/23 03:47:13;;;;;;;;;;;;;;;8.95;65.08;99933.25;4429220;32;34979;-82
2022/09/23 03:49:42;;;;;;;;;;;;;;;8.79;65.99;99936.72;4428480;32;34249;-82
2022/09/23 03:52:14;;;;;;;;;;;;;;;9.05;65.15;99943.59;4429208;32;32939;-83
2022/09/23 03:54:42;;;;;;;;;;;;;;;8.96;65.40;99937.59;4430879;32;33728;-83
2022/09/23 03:57:14;;;;;;;;;;;;;;;8.94;65.26;99936.72;4426889;32;34250;-83
2022/09/23 03:59:43;;;;;;;;;;;;;;;9.00;64.95;99940.16;4430466;32;34874;-82
2022/09/23 04:02:14;;;;;;;;;;;;;;;8.72;65.91;99937.59;4429090;32;33519;-83
2022/09/23 04:04:43;;;;;;;;;;;;;;;8.90;65.66;99934.16;4432619;32;33866;-83
2022/09/23 04:07:12;;;;;;;;;;;;;;;8.83;66.26;99933.28;4432158;32;34131;-83
2022/09/23 04:09:42;;;;;;;;;;;;;;;8.87;66.28;99941.91;4429390;32;34909;-82
2022/09/23 04:12:11;;;;;;;;;;;;;;;8.83;66.18;99942.78;4434502;32;33571;-82
2022/09/23 04:14:43;;;;;;;;;;;;;;;8.86;65.97;99941.03;4430120;32;34642;-81
2022/09/23 04:17:14;;;;;;;;;;;;;;;8.87;65.94;99947.94;4428389;32;34127;-82
2022/09/23 04:19:44;;;;;;;;;;;;;;;8.92;65.61;99941.03;4430448;32;34559;-81
2022/09/23 04:22:18;;;;;;;;;;;;;;;8.93;65.62;99937.56;4431176;32;34118;-84
2022/09/23 04:24:48;;;;;;;;;;;;;;;8.82;66.08;99941.94;4420611;32;33745;-82
2022/09/23 04:27:22;;;;;;;;;;;;;;;8.95;65.41;99938.44;4426062;32;33943;-82
2022/09/23 04:29:50;;;;;;;;;;;;;;;8.82;65.58;99933.28;4432876;32;34382;-84
2022/09/23 04:32:20;;;;;;;;;;;;;;;8.57;66.50;99937.66;4429334;32;33288;-82
2022/09/23 04:34:49;;;;;;;;;;;;;;;8.67;66.56;99944.50;4430538;32;33803;-83
2022/09/23 04:37:18;;;;;;;;;;;;;;;8.79;65.78;99936.72;4431469;32;34944;-82
2022/09/23 04:39:50;;;;;;;;;;;;;;;8.63;66.30;99937.66;4429076;32;34652;-81
2022/09/23 04:42:19;;;;;;;;;;;;;;;8.75;66.17;99947.97;4435600;32;33450;-81
2022/09/23 04:44:49;;;;;;;;;;;;;;;8.75;66.27;99947.97;4432427;32;33736;-84
2022/09/23 04:47:18;;;;;;;;;;;;;;;8.89;66.03;99951.41;4431918;32;33851;-83
2022/09/23 04:49:53;;;;;;;;;;;;;;;8.88;66.00;99952.25;4437856;32;34262;-85
2022/09/23 04:52:30;;;;;;;;;;;;;;;8.82;66.12;99952.28;4438345;32;33660;-81
2022/09/23 04:54:58;;;;;;;;;;;;;;;8.69;66.51;99954.00;4435674;32;34799;-84
2022/09/23 04:57:30;;;;;;;;;;;;;;;8.82;66.66;99951.38;4432697;32;33671;-84
2022/09/23 04:59:59;;;;;;;;;;;;;;;8.86;66.23;99955.69;4435188;32;35027;-82
2022/09/23 05:02:30;;;;;;;;;;;;;;;8.91;66.07;99954.81;4432686;32;34137;-83
2022/09/23 05:05:00;;;;;;;;;;;;;;;8.91;66.04;99956.56;4437531;32;34582;-84
2022/09/23 05:07:29;;;;;;;;;;;;;;;9.04;65.57;99967.75;4431718;32;33537;-84
2022/09/23 05:10:04;;;;;;;;;;;;;;;8.95;66.08;99973.81;4432282;32;34076;-82
2022/09/23 05:12:34;;;;;;;;;;;;;;;8.90;66.64;99975.53;4417893;32;33160;-80
2022/09/23 05:15:02;;;;;;;;;;;;;;;9.12;66.23;99974.62;4433133;32;33255;-82
2022/09/23 05:17:32;;;;;;;;;;;;;;;9.06;66.41;99971.19;4433358;32;34820;-81
2022/09/23 05:20:02;;;;;;;;;;;;;;;9.02;66.54;99977.25;4431222;32;36026;-82
2022/09/23 05:22:37;;;;;;;;;;;;;;;8.88;66.77;99974.69;4426817;32;35550;-84
2022/09/23 05:25:05;;;;;;;;;;;;;;;8.99;66.31;99972.94;4420227;32;33433;-82
2022/09/23 05:27:34;;;;;;;;;;;;;;;9.00;66.11;99972.06;4434203;32;33193;-82
2022/09/23 05:30:03;;;;;;;;;;;;;;;9.10;65.96;99976.34;4421567;32;34397;-81
2022/09/23 05:32:32;;;;;;;;;;;;;;;9.09;65.88;99978.94;4433884;32;33146;-83
2022/09/23 05:35:06;;;;;;;;;;;;;;;9.01;66.32;99980.69;4429414;32;33953;-82
2022/09/23 05:37:44;;;;;;;;;;;;;;;9.15;65.97;99986.69;4432213;32;34061;-81
2022/09/23 05:40:13;;;;;;;;;;;;;;;9.13;65.98;99976.34;4436843;32;34443;-84
2022/09/23 05:42:48;;;;;;;;;;;;;;;9.07;66.50;99985.84;4432529;32;34202;-82
2022/09/23 05:45:17;;;;;;;;;;;;;;;9.12;66.60;99984.13;4412263;32;34580;-82
2022/09/23 05:47:46;;;;;;;;;;;;;;;9.26;66.34;99989.25;4426567;32;33730;-82
2022/09/23 05:50:16;;;;;;;;;;;;;;;9.22;66.86;99990.97;4432744;32;34894;-82
2022/09/23 05:52:53;;;;;;;;;;;;;;;9.24;67.34;99989.25;4433160;32;33411;-83
2022/09/23 05:55:25;;;;;;;;;;;;;;;9.34;67.45;99983.16;4427724;32;34549;-84
2022/09/23 05:57:54;;;;;;;;;;;;;;;9.49;67.49;99983.97;4429453;32;33570;-81
2022/09/23 06:00:29;;;;;;;;;;;;;;;9.76;66.88;99983.88;4431171;32;34821;-84
2022/09/23 06:02:57;;;;;;;;;;;;;;;9.77;66.66;99979.53;4423509;32;33126;-83
2022/09/23 06:05:32;;;;;;;;;;;;;;;9.55;67.85;99976.19;4427902;32;34329;-81
2022/09/23 06:08:01;;;;;;;;;;;;;;;9.81;67.43;99979.53;4428156;32;33946;-82
2022/09/23 06:10:29;;;;;;;;;;;;;;;10.00;67.15;99982.00;4428799;32;32530;-83
2022/09/23 06:12:58;;;;;;;;;;;;;;;10.03;66.94;99988.03;4430871;32;33664;-82
2022/09/23 06:15:33;;;;;;;;;;;;;;;10.02;67.46;99982.84;4436436;32;34299;-81
2022/09/23 06:18:01;;;;;;;;;;;;;;;10.15;67.45;99984.50;4431284;32;34585;-81
2022/09/23 06:20:41;;;;;;;;;;;;;;;10.21;67.70;99992.22;4434981;32;33494;-84
2022/09/23 06:23:10;;;;;;;;;;;;;;;10.42;67.24;99982.62;4429764;32;33568;-81
2022/09/23 06:25:47;;;;;;;;;;;;;;;10.61;65.99;99989.38;4430967;32;34146;-82
2022/09/23 06:28:16;;;;;;;;;;;;;;;10.54;66.30;99992.87;4434241;32;32109;-82
2022/09/23 06:30:44;;;;;;;;;;;;;;;10.82;65.84;99982.25;4433402;32;34532;-85
2022/09/23 06:33:14;;;;;;;;;;;;;;;10.92;65.77;99981.31;4427872;32;33006;-85
2022/09/23 06:35:49;;;;;;;;;;;;;;;10.91;65.41;99986.50;4427971;32;34595;-82
2022/09/23 06:38:27;;;;;;;;;;;;;;;10.94;64.83;99989.06;4433826;32;33536;-82
2022/09/23 06:41:03;;;;;;;;;;;;;;;11.03;64.75;99991.56;4425296;32;33974;-82
2022/09/23 06:43:31;;;;;;;;;;;;;;;11.08;64.81;99997.56;4426102;32;34054;-82
2022/09/23 06:46:00;;;;;;;;;;;;;;;11.31;64.67;99997.34;4432821;32;33830;-82
2022/09/23 06:48:34;;;;;;;;;;;;;;;11.45;63.93;99997.16;4427887;32;33792;-82
2022/09/23 06:51:07;;;;;;;;;;;;;;;11.29;64.79;100001.69;4431416;32;33265;-82
2022/09/23 06:53:35;;;;;;;;;;;;;;;11.32;64.99;100006.84;4429711;32;32744;-82
2022/09/23 06:56:05;;;;;;;;;;;;;;;11.58;64.44;100001.34;4424293;32;33351;-86
2022/09/23 06:58:35;;;;;;;;;;;;;;;11.72;64.25;100001.19;4433581;32;34369;-83
2022/09/23 07:01:10;;;;;;;;;;;;;;;11.66;64.66;100002.09;4420529;32;33869;-83
2022/09/23 07:03:39;;;;;;;;;;;;;;;11.87;64.19;99998.41;4422569;32;32020;-83
2022/09/23 07:06:09;;;;;;;;;;;;;;;12.00;63.97;100003.44;4427785;32;33960;-83
2022/09/23 07:08:39;;;;;;;;;;;;;;;11.90;64.64;99998.34;4416559;32;34892;-85
2022/09/23 07:11:11;;;;;;;;;;;;;;;12.07;64.03;99997.25;4428144;32;33772;-84
2022/09/23 07:13:41;;;;;;;;;;;;;;;12.31;63.26;99996.88;4417878;32;33683;-83
2022/09/23 07:16:09;;;;;;;;;;;;;;;12.59;61.80;99999.06;4416686;32;33940;-81
2022/09/23 07:18:39;;;;;;;;;;;;;;;12.50;62.58;100002.66;4424591;32;33939;-84
2022/09/23 07:21:14;;;;;;;;;;;;;;;12.59;63.03;99999.91;4427242;32;35019;-82
2022/09/23 07:23:43;;;;;;;;;;;;;;;12.66;63.57;100003.28;4418024;32;34253;-82
2022/09/23 07:26:11;;;;;;;;;;;;;;;12.73;63.91;100007.50;4421366;32;34139;-83
2022/09/23 07:28:41;;;;;;;;;;;;;;;12.79;63.53;100007.38;4423240;32;33782;-81
2022/09/23 07:31:17;;;;;;;;;;;;;;;12.50;64.58;100013.06;4421065;32;34118;-83
2022/09/23 07:34:08;;;;;;;;;;;;;;;12.97;62.99;100008.78;4416095;32;34252;-83
2022/09/23 07:36:46;;;;;;;;;;;;;;;12.88;64.09;100016.78;4422479;32;34853;-83
2022/09/23 07:39:14;;;;;;;;;;;;;;;12.88;63.48;100016.78;4425886;32;33794;-85
2022/09/23 07:41:50;;;;;;;;;;;;;;;13.09;63.96;100012.06;4403996;32;34387;-85
2022/09/23 07:44:22;;;;;;;;;;;;;;;13.18;63.93;100007.56;4418178;32;33079;-83
2022/09/23 07:46:51;;;;;;;;;;;;;;;13.13;64.38;100006.78;4418260;32;34038;-82
2022/09/23 07:49:22;;;;;;;;;;;;;;;13.22;64.39;100013.59;4421411;32;34131;-85
2022/09/23 07:51:54;;;;;;;;;;;;;;;13.38;62.77;100014.16;4421373;32;33425;-85
2022/09/23 07:54:29;;;;;;;;;;;;;;;13.51;62.39;100009.59;4412857;32;33855;-83
2022/09/23 07:56:58;;;;;;;;;;;;;;;13.52;62.25;100004.31;4414296;32;34335;-83
2022/09/23 07:59:30;;;;;;;;;;;;;;;13.63;62.73;100011.94;4420752;32;34882;-82
2022/09/23 08:01:59;;;;;;;;;;;;;;;13.54;63.45;100014.72;4422604;32;32901;-82
2022/09/23 08:04:30;;;;;;;;;;;;;;;13.57;63.78;100005.09;4421335;32;32832;-84
2022/09/23 08:07:00;;;;;;;;;;;;;;;13.74;61.70;100007.34;4417815;32;34079;-82
2022/09/23 08:09:32;;;;;;;;;;;;;;;13.89;60.75;100019.19;4419101;32;34916;-83
2022/09/23 08:12:00;;;;;;;;;;;;;;;13.86;61.55;100014.06;4421408;32;34138;-83
2022/09/23 08:14:30;;;;;;;;;;;;;;;14.07;59.59;100007.53;4427458;32;33806;-84
2022/09/23 08:16:59;;;;;;;;;;;;;;;14.14;57.97;100014.31;4427824;32;33011;-83
2022/09/23 08:19:28;;;;;;;;;;;;;;;14.09;58.34;100008.34;4437850;32;34263;-85
2022/09/23 08:22:03;;;;;;;;;;;;;;;14.26;58.05;100007.97;4405078;32;34273;-85
2022/09/23 08:27:05;;;;;;;;;;;;;;;14.30;58.49;100009.59;4419405;32;33638;-86
2022/09/23 08:29:34;;;;;;;;;;;;;;;14.39;57.88;100001.53;4413464;32;33371;-83
2022/09/23 08:32:04;;;;;;;;;;;;;;;14.58;57.55;100007.22;4434890;32;33961;-85
2022/09/23 08:34:36;;;;;;;;;;;;;;;14.69;55.41;99999.09;4426652;32;34266;-81
2022/09/23 08:37:10;;;;;;;;;;;;;;;14.39;57.58;99998.94;4430875;32;34291;-82
2022/09/23 08:39:39;;;;;;;;;;;;;;;14.51;56.35;99996.03;4433008;32;34286;-82
2022/09/23 08:42:12;;;;;;;;;;;;;;;14.72;56.57;99993.81;4423698;32;33906;-85
2022/09/23 08:44:46;;;;;;;;;;;;;;;14.92;55.58;99998.53;4426197;32;33521;-83
2022/09/23 08:47:16;;;;;;;;;;;;;;;14.73;57.24;99996.38;4420821;32;33805;-81
2022/09/23 08:49:52;;;;;;;;;;;;;;;15.04;55.89;100003.44;4424735;32;33869;-85
2022/09/23 08:52:26;;;;;;;;;;;;;;;14.80;56.85;100004.06;4416155;32;34489;-84
2022/09/23 08:54:55;;;;;;;;;;;;;;;15.27;54.10;100002.81;4426187;32;34071;-81
2022/09/23 08:57:32;;;;;;;;;;;;;;;15.17;55.34;99992.63;4422806;32;33667;-82
2022/09/23 09:00:01;;;;;;;;;;;;;;;14.89;56.66;99999.47;4438057;32;33966;-85
2022/09/23 09:02:39;;;;;;;;;;;;;;;15.19;54.68;99998.69;4441124;32;34462;-84
2022/09/23 09:05:11;;;;;;;;;;;;;;;15.31;54.45;100000.97;4435359;32;33211;-82
2022/09/23 09:07:42;;;;;;;;;;;;;;;15.04;54.98;99992.97;4435169;32;33942;-82
2022/09/23 09:10:14;;;;;;;;;;;;;;;15.31;55.67;99999.19;4436995;32;33837;-83
2022/09/23 09:12:44;;;;;;;;;;;;;;;15.60;55.11;99996.69;4440589;32;35039;-83
2022/09/23 09:15:14;;;;;;;;;;;;;;;15.68;53.45;100000.78;4434974;32;33848;-83
2022/09/23 09:17:47;;;;;;;;;;;;;;;15.41;54.86;99998.94;4435001;32;34510;-86
2022/09/23 09:20:38;;;;;;;;;;;;;;;15.73;53.97;100000.69;4435862;32;34207;-85
2022/09/23 09:23:12;;;;;;;;;;;;;;;15.54;54.46;99997.72;4431607;32;34446;-85
2022/09/23 09:25:49;;;;;;;;;;;;;;;15.66;54.11;99999.13;4433909;32;33265;-85
2022/09/23 09:28:26;;;;;;;;;;;;;;;15.86;53.30;99995.94;4436029;32;33481;-82
2022/09/23 09:30:56;;;;;;;;;;;;;;;15.83;54.80;99996.91;4433361;32;34368;-85
2022/09/23 09:33:29;;;;;;;;;;;;;;;15.84;54.99;99990.75;4433195;32;34042;-85
2022/09/23 09:36:08;;;;;;;;;;;;;;;15.97;53.94;99993.84;4432302;32;32787;-83
2022/09/23 09:38:38;;;;;;;;;;;;;;;16.02;53.30;99993.72;4437705;32;33920;-83
2022/09/23 09:41:12;;;;;;;;;;;;;;;16.23;51.39;99984.34;4436171;32;33972;-83
2022/09/23 09:43:41;;;;;;;;;;;;;;;16.17;52.48;99983.63;4432447;32;33654;-84
2022/09/23 09:46:21;;;;;;;;;;;;;;;16.39;52.10;99985.56;4432054;32;34661;-85
2022/09/23 09:48:53;;;;;;;;;;;;;;;16.20;52.36;99980.06;4432404;32;34243;-84
2022/09/23 09:51:22;;;;;;;;;;;;;;;16.45;52.50;99977.50;4437504;32;34204;-85
2022/09/23 09:53:52;;;;;;;;;;;;;;;16.37;52.39;99971.66;4431862;32;34487;-83
2022/09/23 09:56:26;;;;;;;;;;;;;;;16.42;52.01;99975.84;4432150;32;32976;-85
2022/09/23 09:59:09;;;;;;;;;;;;;;;16.58;52.09;99967.50;4434013;32;33487;-84
2022/09/23 10:01:39;;;;;;;;;;;;;;;16.64;52.50;99972.50;4435905;32;34812;-82
2022/09/23 10:04:20;;;;;;;;;;;;;;;16.83;52.23;99963.16;4437386;32;34713;-83
2022/09/23 10:07:04;;;;;;;;;;;;;;;16.91;50.10;99957.63;4432589;32;32734;-82
2022/09/23 10:09:36;;;;;;;;;;;;;;;17.08;49.55;99958.81;4431020;32;33417;-83
2022/09/23 10:12:14;;;;;;;;;;;;;;;17.17;49.66;99958.47;4434044;32;35112;-85
2022/09/23 10:14:45;;;;;;;;;;;;;;;17.18;50.79;99960.19;4431131;32;34139;-83
2022/09/23 10:17:15;;;;;;;;;;;;;;;17.30;50.03;99958.88;4436275;32;34288;-84
2022/09/23 10:19:48;;;;;;;;;;;;;;;17.46;49.58;99966.12;4436969;32;34717;-83
2022/09/23 10:22:18;;;;;;;;;;;;;;;17.52;48.79;99961.56;4433439;32;33807;-82
2022/09/23 10:24:52;;;;;;;;;;;;;;;17.39;48.21;99962.03;4430544;32;33722;-86
2022/09/23 10:27:31;;;;;;;;;;;;;;;17.34;48.38;99956.09;4428567;32;34217;-86
2022/09/23 10:30:00;;;;;;;;;;;;;;;17.31;48.34;99955.37;4437561;32;33336;-85
2022/09/23 10:32:30;;;;;;;;;;;;;;;17.30;48.38;99956.25;4431953;32;34716;-83
2022/09/23 10:35:01;;;;;;;;;;;;;;;17.38;48.14;99955.09;4432084;32;33719;-83
2022/09/23 10:37:31;;;;;;;;;;;;;;;17.40;47.91;99960.28;4428655;32;33410;-83
2022/09/23 10:48:34;;;;;;;;;;;;;;;17.45;48.12;99943.44;4431562;32;33535;-82
2022/09/23 10:51:04;;;;;;;;;;;;;;;17.58;47.54;99943.84;4424036;32;33540;-84
2022/09/23 10:53:34;;;;;;;;;;;;;;;17.53;47.86;99942.31;4430689;32;33821;-85
2022/09/23 10:56:11;;;;;;;;;;;;;;;17.72;47.02;99945.94;4430701;32;34348;-83
2022/09/23 10:58:54;;;;;;;;;;;;;;;17.43;47.34;99949.66;4435717;32;33488;-83
2022/09/23 11:01:26;;;;;;;;;;;;;;;17.72;48.43;99943.31;4432734;32;33443;-83
2022/09/23 11:04:06;;;;;;;;;;;;;;;17.77;48.48;99944.00;4432482;32;34386;-83
2022/09/23 11:06:41;;;;;;;;;;;;;;;17.82;48.37;99946.47;4431008;32;33823;-84
2022/09/23 11:09:17;;;;;;;;;;;;;;;17.87;46.88;99936.66;4431838;32;33282;-83
2022/09/23 11:11:53;;;;;;;;;;;;;;;17.83;47.86;99938.56;4437121;32;33355;-83
2022/09/23 11:14:37;;;;;;;;;;;;;;;17.85;48.66;99933.22;4436475;32;34804;-82
2022/09/23 11:17:13;;;;;;;;;;;;;;;17.74;48.59;99935.41;4431632;32;33982;-87
2022/09/23 11:19:55;;;;;;;;;;;;;;;17.89;48.83;99934.81;4431573;32;33706;-84
2022/09/23 11:22:36;;;;;;;;;;;;;;;18.07;48.35;99927.97;4428715;32;33827;-84
2022/09/23 11:25:18;;;;;;;;;;;;;;;18.10;46.60;99931.34;4430404;32;33820;-84
2022/09/23 11:27:59;;;;;;;;;;;;;;;18.09;47.38;99923.50;4435906;32;34503;-83
2022/09/23 11:30:29;;;;;;;;;;;;;;;18.18;46.48;99919.69;4437751;32;33384;-84
2022/09/23 11:33:22;;;;;;;;;;;;;;;18.08;46.83;99916.56;4435504;32;34157;-87
2022/09/23 11:35:54;;;;;;;;;;;;;;;18.19;47.00;99903.84;4405841;32;33266;-82
2022/09/23 11:38:25;;;;;;;;;;;;;;;18.09;50.03;99921.75;4428878;32;33725;-85
2022/09/23 11:40:55;;;;;;;;;;;;;;;18.07;48.99;99913.09;4434983;32;33540;-84
2022/09/23 11:43:27;;;;;;;;;;;;;;;18.25;48.65;99905.38;4435141;32;33912;-83
2022/09/23 11:45:58;;;;;;;;;;;;;;;18.19;49.24;99903.84;4430903;32;34902;-85
2022/09/23 11:48:29;;;;;;;;;;;;;;;18.26;49.65;99904.44;4428949;32;32868;-85
2022/09/23 11:51:09;;;;;;;;;;;;;;;18.39;48.99;99896.91;4432104;32;33064;-83
2022/09/23 11:53:40;;;;;;;;;;;;;;;18.22;46.19;99893.22;4435954;32;36662;-83
2022/09/23 11:56:10;;;;;;;;;;;;;;;18.45;46.04;99894.03;4431123;32;34683;-83
2022/09/23 11:58:58;;;;;;;;;;;;;;;18.50;44.37;99897.31;4428234;32;34283;-84
2022/09/23 12:01:32;;;;;;;;;;;;;;;18.40;45.02;99890.75;4430013;32;33017;-84
2022/09/23 12:04:09;;;;;;;;;;;;;;;18.42;45.24;99892.38;4431000;32;34323;-83
2022/09/23 12:06:55;;;;;;;;;;;;;;;18.47;46.39;99895.66;4431115;32;34165;-84
2022/09/23 12:09:25;;;;;;;;;;;;;;;18.55;45.90;99890.09;4420716;32;32894;-84
2022/09/23 12:12:20;;;;;;;;;;;;;;;18.45;46.06;99891.41;4431751;32;33398;-85
2022/09/23 12:14:57;;;;;;;;;;;;;;;18.52;46.73;99884.97;4426365;32;34076;-85
2022/09/23 12:17:47;;;;;;;;;;;;;;;18.55;46.97;99877.78;4430234;32;34191;-86
2022/09/23 12:20:28;;;;;;;;;;;;;;;18.67;46.32;99875.56;4431044;32;35054;-85
2022/09/23 12:23:03;;;;;;;;;;;;;;;18.51;45.15;99878.87;4426273;32;34049;-85
2022/09/23 12:25:33;;;;;;;;;;;;;;;18.68;45.57;99875.50;4434299;32;33842;-85
2022/09/23 12:28:03;;;;;;;;;;;;;;;19.25;42.82;99869.50;4430486;32;33740;-84
2022/09/23 12:30:34;;;;;;;;;;;;;;;19.42;42.13;99861.69;4430738;32;34653;-85
2022/09/23 12:33:09;;;;;;;;;;;;;;;19.35;44.01;99855.00;4430737;32;32657;-84
2022/09/23 12:35:40;;;;;;;;;;;;;;;19.35;42.23;99861.13;4430656;32;34401;-84
2022/09/23 12:38:13;;;;;;;;;;;;;;;19.94;39.42;99853.94;4435152;32;34306;-84
2022/09/23 12:40:49;;;;;;;;;;;;;;;19.88;41.33;99858.66;4430448;32;34518;-88
2022/09/23 12:43:18;;;;;;;;;;;;;;;20.10;41.75;99845.28;4432023;32;33712;-84
2022/09/23 12:45:51;;;;;;;;;;;;;;;20.43;39.05;99840.09;4430630;32;34493;-86
2022/09/23 12:48:27;;;;;;;;;;;;;;;20.53;40.02;99835.19;4433940;32;34672;-84
2022/09/23 12:51:14;;;;;;;;;;;;;;;20.74;38.11;99844.66;4428261;32;34057;-86
2022/09/23 12:53:58;;;;;;;;;;;;;;;20.70;39.91;99835.19;4431926;32;33113;-85
2022/09/23 12:56:28;;;;;;;;;;;;;;;21.15;38.09;99833.66;4431627;32;34318;-87
2022/09/23 12:58:57;;;;;;;;;;;;;;;21.16;38.08;99835.34;4431916;32;33738;-85
2022/09/23 13:01:27;;;;;;;;;;;;;;;21.41;35.07;99819.06;4434164;32;34835;-85
2022/09/23 13:06:47;;;;;;;;;;;;;;;21.47;39.31;99818.69;4432376;32;34002;-85
2022/09/23 13:09:17;;;;;;;;;;;;;;;21.84;36.11;99814.00;4431876;32;33721;-85
2022/09/23 13:11:52;;;;;;;;;;;;;;;21.87;33.82;99810.31;4434181;32;33863;-87
2022/09/23 13:14:23;;;;;;;;;;;;;;;22.01;33.16;99812.13;4432315;32;33895;-86
2022/09/23 13:16:57;;;;;;;;;;;;;;;22.14;34.46;99813.13;4438136;32;33656;-85
2022/09/23 13:19:45;;;;;;;;;;;;;;;22.33;33.83;99802.34;4428617;32;33734;-85
2022/09/23 13:22:16;;;;;;;;;;;;;;;22.42;34.17;99801.78;4434196;32;35163;-87
2022/09/23 13:24:51;;;;;;;;;;;;;;;22.54;33.83;99803.69;4416945;32;33528;-85
2022/09/23 13:27:21;;;;;;;;;;;;;;;22.46;34.83;99802.44;4422251;32;34565;-85
2022/09/23 13:29:57;;;;;;;;;;;;;;;22.33;34.13;99802.34;4438080;32;33937;-86
2022/09/23 13:32:32;;;;;;;;;;;;;;;22.73;32.03;99807.84;4434567;32;34362;-84